createdAt,value
2017-09-06T00:02:16.196Z,76.10
2017-09-06T00:04:45.829Z,75.70
2017-09-06T00:07:15.085Z,76.50
2017-09-06T00:09:44.180Z,76.90
2017-09-06T00:12:14.204Z,77.40
2017-09-06T00:14:43.713Z,77.60
2017-09-06T00:17:13.871Z,77.90
2017-09-06T00:19:43.171Z,78.40
2017-09-06T00:22:12.546Z,79.20
2017-09-06T00:24:41.681Z,79.60
2017-09-06T00:27:10.929Z,79.90
2017-09-06T00:29:40.386Z,80.20
2017-09-06T00:32:09.643Z,80.60
2017-09-06T00:34:38.918Z,81.00
2017-09-06T00:37:08.271Z,82.10
2017-09-06T00:39:37.534Z,81.40
2017-09-06T00:42:06.761Z,81.70
2017-09-06T00:44:36.019Z,81.90
2017-09-06T00:47:05.196Z,82.10
2017-09-06T00:49:34.327Z,82.10
2017-09-06T00:52:03.636Z,82.30
2017-09-06T00:54:32.914Z,82.20
2017-09-06T00:57:02.159Z,82.40
2017-09-06T00:59:31.746Z,82.40
2017-09-06T01:02:01.034Z,82.20
2017-09-06T01:04:30.245Z,82.80
2017-09-06T01:06:59.851Z,82.10
2017-09-06T01:09:29.214Z,82.70
2017-09-06T01:11:58.340Z,82.10
2017-09-06T01:14:27.923Z,82.30
2017-09-06T01:17:00.661Z,82.40
2017-09-06T01:19:30.378Z,82.10
2017-09-06T01:21:59.691Z,82.00
2017-09-06T01:24:29.326Z,82.00
2017-09-06T01:26:59.370Z,82.00
2017-09-06T01:29:28.506Z,82.20
2017-09-06T01:31:57.691Z,82.00
2017-09-06T01:34:27.198Z,82.30
2017-09-06T01:36:56.436Z,82.20
2017-09-06T01:39:26.658Z,82.10
2017-09-06T01:41:56.835Z,82.00
2017-09-06T01:44:26.928Z,82.10
2017-09-06T01:46:57.562Z,82.20
2017-09-06T01:49:26.656Z,82.60
2017-09-06T01:51:55.923Z,82.80
2017-09-06T01:54:25.222Z,82.90
2017-09-06T01:56:54.478Z,83.20
2017-09-06T01:59:24.441Z,83.50
2017-09-06T02:01:57.562Z,83.50
2017-09-06T02:04:29.193Z,83.80
2017-09-06T02:06:59.572Z,83.60
2017-09-06T02:09:29.401Z,83.50
2017-09-06T02:11:59.002Z,83.30
2017-09-06T02:14:28.597Z,83.30
2017-09-06T02:16:58.432Z,83.10
2017-09-06T02:19:28.614Z,83.10
2017-09-06T02:21:58.140Z,83.40
2017-09-06T02:24:27.270Z,83.50
2017-09-06T02:26:56.446Z,83.50
2017-09-06T02:29:25.788Z,83.50
2017-09-06T02:31:54.934Z,83.60
2017-09-06T02:34:24.086Z,84.00
2017-09-06T02:36:53.361Z,84.10
2017-09-06T02:39:22.528Z,84.20
2017-09-06T02:41:51.773Z,84.00
2017-09-06T02:44:20.928Z,84.00
2017-09-06T02:46:50.024Z,84.10
2017-09-06T02:49:19.185Z,84.20
2017-09-06T02:51:48.633Z,84.40
2017-09-06T02:54:17.756Z,84.70
2017-09-06T02:56:46.962Z,85.20
2017-09-06T02:59:16.490Z,85.40
2017-09-06T03:01:45.692Z,85.80
2017-09-06T03:04:15.843Z,86.00
2017-09-06T03:06:45.272Z,86.60
2017-09-06T03:09:14.390Z,86.70
2017-09-06T03:11:43.482Z,86.60
2017-09-06T03:14:13.143Z,86.60
2017-09-06T03:16:43.258Z,86.70
2017-09-06T03:19:12.399Z,87.10
2017-09-06T03:21:41.702Z,87.40
2017-09-06T03:24:10.893Z,87.70
2017-09-06T03:26:40.145Z,87.90
2017-09-06T03:29:09.581Z,88.40
2017-09-06T03:31:38.786Z,88.60
2017-09-06T03:34:08.343Z,89.30
2017-09-06T03:36:37.608Z,89.40
2017-09-06T03:39:07.523Z,89.70
2017-09-06T03:41:36.678Z,89.50
2017-09-06T03:44:05.974Z,89.40
2017-09-06T03:46:35.124Z,89.40
2017-09-06T03:49:04.306Z,89.50
2017-09-06T03:51:33.832Z,89.50
2017-09-06T03:54:03.769Z,90.00
2017-09-06T03:56:33.147Z,89.90
2017-09-06T03:59:02.732Z,90.10
2017-09-06T04:01:31.947Z,90.10
2017-09-06T04:04:01.250Z,90.10
2017-09-06T04:06:30.662Z,90.30
2017-09-06T04:08:59.826Z,90.30
2017-09-06T04:11:29.332Z,90.60
2017-09-06T04:13:59.513Z,90.70
2017-09-06T04:16:28.706Z,90.70
2017-09-06T04:18:57.836Z,90.80
2017-09-06T04:21:27.712Z,90.80
2017-09-06T04:23:57.839Z,90.80
2017-09-06T04:26:27.015Z,90.80
2017-09-06T04:28:56.461Z,90.80
2017-09-06T04:31:25.605Z,90.70
2017-09-06T04:33:55.962Z,90.60
2017-09-06T04:36:26.056Z,90.60
2017-09-06T04:38:55.332Z,90.70
2017-09-06T04:41:24.490Z,90.60
2017-09-06T04:43:53.713Z,90.60
2017-09-06T04:46:24.249Z,90.70
2017-09-06T04:48:53.422Z,90.60
2017-09-06T04:51:22.937Z,90.50
2017-09-06T04:53:52.046Z,90.50
2017-09-06T04:56:21.221Z,90.50
2017-09-06T04:58:50.742Z,90.40
2017-09-06T05:01:19.878Z,90.40
2017-09-06T05:03:49.012Z,90.60
2017-09-06T05:06:18.431Z,90.40
2017-09-06T05:08:47.564Z,90.40
2017-09-06T05:11:16.758Z,90.40
2017-09-06T05:13:46.857Z,90.40
2017-09-06T05:16:15.990Z,90.40
2017-09-06T05:18:45.096Z,90.50
2017-09-06T05:21:14.629Z,90.30
2017-09-06T05:23:43.731Z,90.30
2017-09-06T05:26:12.875Z,90.30
2017-09-06T05:28:42.178Z,90.50
2017-09-06T05:31:11.321Z,90.60
2017-09-06T05:33:40.655Z,90.50
2017-09-06T05:36:09.942Z,90.50
2017-09-06T05:38:39.056Z,90.60
2017-09-06T05:41:08.204Z,90.70
2017-09-06T05:43:37.549Z,90.60
2017-09-06T05:46:06.952Z,90.70
2017-09-06T05:48:36.108Z,90.70
2017-09-06T05:51:05.655Z,90.80
2017-09-06T05:53:37.111Z,90.70
2017-09-06T05:56:11.563Z,90.70
2017-09-06T05:58:42.372Z,90.80
2017-09-06T06:01:11.667Z,90.80
2017-09-06T06:03:42.132Z,90.80
2017-09-06T06:06:11.307Z,90.90
2017-09-06T06:08:40.477Z,90.70
2017-09-06T06:11:10.066Z,90.80
2017-09-06T06:13:40.259Z,91.00
2017-09-06T06:16:09.485Z,91.10
2017-09-06T06:18:39.102Z,90.80
2017-09-06T06:21:08.319Z,90.80
2017-09-06T06:23:37.621Z,90.60
2017-09-06T06:26:09.176Z,90.40
2017-09-06T06:28:38.444Z,90.40
2017-09-06T06:31:07.652Z,90.40
2017-09-06T06:33:37.140Z,90.40
2017-09-06T06:36:06.386Z,90.50
2017-09-06T06:38:35.667Z,90.60
2017-09-06T06:41:05.290Z,90.60
2017-09-06T06:43:34.764Z,90.80
2017-09-06T06:46:04.170Z,90.30
2017-09-06T06:48:34.244Z,90.30
2017-09-06T06:51:04.039Z,90.10
2017-09-06T06:53:33.421Z,90.00
2017-09-06T06:56:02.860Z,90.00
2017-09-06T06:58:32.227Z,90.10
2017-09-06T07:01:01.460Z,90.40
2017-09-06T07:03:31.032Z,90.40
2017-09-06T07:06:00.311Z,90.10
2017-09-06T07:08:29.649Z,90.10
2017-09-06T07:10:59.139Z,90.20
2017-09-06T07:13:28.715Z,89.40
2017-09-06T07:15:58.002Z,89.10
2017-09-06T07:18:27.739Z,88.90
2017-09-06T07:20:57.876Z,88.20
2017-09-06T07:23:27.103Z,88.10
2017-09-06T07:25:56.663Z,87.60
2017-09-06T07:28:25.971Z,87.10
2017-09-06T07:30:55.104Z,86.90
2017-09-06T07:33:25.252Z,86.50
2017-09-06T07:35:54.368Z,85.70
2017-09-06T07:38:23.948Z,85.50
2017-09-06T07:40:54.426Z,85.40
2017-09-06T07:43:23.679Z,85.90
2017-09-06T07:45:53.703Z,86.00
2017-09-06T07:48:23.103Z,85.30
2017-09-06T07:50:52.223Z,85.60
2017-09-06T07:53:21.636Z,85.50
2017-09-06T07:55:51.231Z,85.20
2017-09-06T07:58:20.401Z,85.50
2017-09-06T08:00:49.553Z,85.40
2017-09-06T08:03:18.902Z,86.70
2017-09-06T08:05:48.100Z,85.80
2017-09-06T08:08:17.288Z,85.90
2017-09-06T08:10:46.706Z,86.00
2017-09-06T08:13:16.000Z,84.90
2017-09-06T08:15:45.127Z,84.10
2017-09-06T08:18:14.296Z,84.20
2017-09-06T08:20:43.736Z,83.40
2017-09-06T08:23:13.648Z,83.40
2017-09-06T08:25:43.265Z,82.70
2017-09-06T08:28:12.452Z,82.40
2017-09-06T08:30:41.730Z,82.50
2017-09-06T08:33:11.262Z,83.10
2017-09-06T08:35:41.460Z,82.50
2017-09-06T08:38:10.655Z,82.40
2017-09-06T08:40:40.006Z,82.70
2017-09-06T08:43:09.369Z,81.90
2017-09-06T08:45:38.694Z,82.80
2017-09-06T08:48:08.372Z,82.30
2017-09-06T08:50:37.747Z,82.50
2017-09-06T08:53:07.185Z,81.70
2017-09-06T08:55:37.093Z,82.00
2017-09-06T08:58:06.339Z,81.70
2017-09-06T09:00:35.772Z,81.70
2017-09-06T09:03:05.165Z,81.90
2017-09-06T09:05:34.342Z,81.20
2017-09-06T09:08:03.915Z,81.50
2017-09-06T09:10:33.462Z,81.80
2017-09-06T09:13:03.235Z,82.60
2017-09-06T09:15:32.662Z,81.50
2017-09-06T09:18:02.185Z,81.20
2017-09-06T09:20:32.333Z,80.80
2017-09-06T09:23:01.767Z,80.00
2017-09-06T09:25:31.641Z,78.20
2017-09-06T09:28:01.038Z,78.30
2017-09-06T09:30:30.544Z,78.00
2017-09-06T09:33:00.746Z,78.00
2017-09-06T09:35:30.095Z,78.00
2017-09-06T09:37:59.572Z,78.00
2017-09-06T09:40:29.155Z,78.70
2017-09-06T09:42:59.271Z,78.30
2017-09-06T09:45:28.521Z,77.00
2017-09-06T09:47:58.213Z,77.10
2017-09-06T09:50:27.438Z,77.60
2017-09-06T09:52:56.578Z,78.00
2017-09-06T09:55:26.445Z,77.30
2017-09-06T09:57:59.806Z,75.20
2017-09-06T10:00:29.542Z,71.70
2017-09-06T10:02:58.812Z,68.70
2017-09-06T10:05:28.807Z,66.10
2017-09-06T10:07:58.281Z,63.50
2017-09-06T10:10:27.408Z,59.20
2017-09-06T10:12:56.540Z,61.00
2017-09-06T10:15:25.743Z,61.50
2017-09-06T10:17:54.866Z,59.70
2017-09-06T10:20:23.990Z,56.80
2017-09-06T10:22:54.658Z,55.00
2017-09-06T10:25:23.785Z,53.80
2017-09-06T10:27:53.098Z,52.10
2017-09-06T10:30:22.598Z,52.50
2017-09-06T10:32:51.691Z,52.90
2017-09-06T10:35:20.789Z,51.70
2017-09-06T10:37:50.130Z,50.70
2017-09-06T10:40:19.225Z,50.90
2017-09-06T10:42:48.386Z,50.90
2017-09-06T10:45:17.916Z,50.00
2017-09-06T10:47:47.039Z,49.80
2017-09-06T10:50:16.316Z,50.20
2017-09-06T10:52:45.787Z,53.20
2017-09-06T10:55:16.824Z,55.80
2017-09-06T10:57:45.989Z,56.90
2017-09-06T11:00:15.524Z,58.80
2017-09-06T11:02:44.623Z,59.20
2017-09-06T11:05:13.757Z,61.30
2017-09-06T11:07:43.078Z,62.70
2017-09-06T11:10:12.275Z,63.90
2017-09-06T11:12:42.341Z,65.50
2017-09-06T11:15:12.101Z,67.30
2017-09-06T11:17:41.261Z,67.80
2017-09-06T11:20:11.429Z,68.10
2017-09-06T11:22:42.018Z,68.40
2017-09-06T11:25:11.287Z,68.50
2017-09-06T11:27:40.510Z,68.60
2017-09-06T11:30:10.351Z,68.20
2017-09-06T11:32:39.847Z,67.70
2017-09-06T11:35:10.845Z,67.10
2017-09-06T11:37:40.578Z,66.70
2017-09-06T11:40:10.526Z,66.20
2017-09-06T11:42:39.842Z,66.80
2017-09-06T11:45:09.233Z,67.20
2017-09-06T11:47:38.941Z,66.90
2017-09-06T11:50:10.346Z,66.80
2017-09-06T11:52:40.088Z,67.60
2017-09-06T11:55:09.549Z,70.40
2017-09-06T11:57:39.405Z,73.60
2017-09-06T12:00:08.886Z,77.80
2017-09-06T12:02:40.849Z,80.50
2017-09-06T12:05:10.749Z,83.10
2017-09-06T12:07:41.537Z,85.50
2017-09-06T12:10:10.912Z,87.80
2017-09-06T12:12:40.492Z,88.60
2017-09-06T12:15:09.978Z,88.80
2017-09-06T12:17:40.208Z,90.30
2017-09-06T12:20:09.371Z,90.70
2017-09-06T12:22:39.761Z,90.20
2017-09-06T12:25:18.784Z,90.30
2017-09-06T12:27:49.500Z,89.50
2017-09-06T12:30:18.665Z,90.10
2017-09-06T12:32:47.777Z,87.90
2017-09-06T12:35:17.015Z,88.40
2017-09-06T12:37:46.146Z,82.90
2017-09-06T12:40:15.251Z,82.90
2017-09-06T12:42:44.561Z,78.90
2017-09-06T12:45:13.657Z,79.90
2017-09-06T12:47:43.784Z,79.90
2017-09-06T12:50:14.439Z,80.80
2017-09-06T12:52:44.257Z,81.20
2017-09-06T12:55:13.376Z,83.30
2017-09-06T12:57:43.590Z,83.30
2017-09-06T13:00:12.783Z,85.00
2017-09-06T13:02:41.882Z,84.00
2017-09-06T13:05:12.342Z,83.70
2017-09-06T13:07:41.515Z,84.50
2017-09-06T13:10:11.319Z,85.40
2017-09-06T13:12:40.658Z,85.00
2017-09-06T13:15:09.950Z,84.50
2017-09-06T13:17:40.107Z,84.30
2017-09-06T13:20:09.522Z,82.80
2017-09-06T13:22:38.763Z,83.10
2017-09-06T13:25:08.027Z,84.10
2017-09-06T13:27:37.589Z,85.00
2017-09-06T13:30:06.764Z,86.20
2017-09-06T13:32:36.064Z,86.40
2017-09-06T13:35:06.326Z,89.10
2017-09-06T13:37:35.750Z,89.20
2017-09-06T13:40:04.932Z,90.00
2017-09-06T13:42:37.671Z,90.50
2017-09-06T13:45:11.571Z,90.50
2017-09-06T13:47:42.920Z,90.40
2017-09-06T13:50:16.542Z,90.50
2017-09-06T13:52:47.421Z,90.40
2017-09-06T13:55:17.344Z,90.50
2017-09-06T13:57:49.503Z,88.50
2017-09-06T14:00:20.271Z,86.50
2017-09-06T14:02:49.600Z,86.40
2017-09-06T14:05:18.776Z,84.60
2017-09-06T14:07:52.390Z,84.00
2017-09-06T14:10:21.705Z,85.40
2017-09-06T14:12:54.660Z,84.80
2017-09-06T14:15:26.068Z,85.40
2017-09-06T14:17:59.828Z,86.40
2017-09-06T14:20:34.429Z,86.90
2017-09-06T14:23:04.809Z,85.90
2017-09-06T14:25:34.112Z,84.80
2017-09-06T14:28:06.785Z,84.90
2017-09-06T14:30:37.625Z,84.90
2017-09-06T14:33:07.848Z,85.00
2017-09-06T14:35:42.061Z,85.30
2017-09-06T14:38:15.274Z,86.20
2017-09-06T14:40:46.194Z,85.20
2017-09-06T14:43:15.571Z,83.70
2017-09-06T14:45:45.858Z,82.70
2017-09-06T14:48:19.866Z,83.30
2017-09-06T14:50:52.534Z,83.90
2017-09-06T14:53:22.559Z,82.90
2017-09-06T14:55:57.602Z,82.30
2017-09-06T14:58:28.463Z,81.70
2017-09-06T15:00:57.723Z,80.90
2017-09-06T15:03:27.126Z,81.00
2017-09-06T15:05:56.657Z,80.10
2017-09-06T15:08:25.976Z,81.20
2017-09-06T15:10:55.534Z,80.50
2017-09-06T15:13:25.629Z,81.30
2017-09-06T15:15:54.858Z,81.30
2017-09-06T15:18:24.060Z,81.20
2017-09-06T15:20:53.328Z,81.30
2017-09-06T15:23:22.403Z,80.70
2017-09-06T15:25:51.547Z,81.10
2017-09-06T15:28:28.608Z,81.80
2017-09-06T15:30:58.115Z,81.10
2017-09-06T15:33:28.428Z,83.30
2017-09-06T15:35:58.176Z,85.50
2017-09-06T15:38:27.323Z,85.40
2017-09-06T15:40:56.689Z,86.20
2017-09-06T15:43:27.078Z,87.10
2017-09-06T15:45:56.978Z,87.30
2017-09-06T15:48:27.083Z,88.20
2017-09-06T15:50:56.584Z,87.50
2017-09-06T15:53:25.773Z,87.40
2017-09-06T15:55:54.880Z,87.20
2017-09-06T15:58:24.196Z,87.20
2017-09-06T16:00:53.317Z,88.10
2017-09-06T16:03:22.526Z,88.20
2017-09-06T16:05:51.979Z,88.00
2017-09-06T16:08:21.100Z,88.20
2017-09-06T16:10:51.348Z,88.60
2017-09-06T16:13:20.786Z,88.50
2017-09-06T16:15:50.675Z,87.60
2017-09-06T16:18:19.800Z,87.40
2017-09-06T16:20:50.136Z,86.20
2017-09-06T16:23:19.264Z,86.20
2017-09-06T16:25:48.429Z,85.30
2017-09-06T16:28:18.412Z,84.90
2017-09-06T16:30:47.566Z,84.50
2017-09-06T16:33:16.704Z,84.00
2017-09-06T16:35:46.634Z,84.10
2017-09-06T16:38:15.774Z,84.10
2017-09-06T16:40:46.703Z,83.30
2017-09-06T16:43:16.032Z,83.20
2017-09-06T16:45:46.045Z,83.40
2017-09-06T16:48:15.197Z,82.40
2017-09-06T16:50:44.808Z,83.30
2017-09-06T16:53:14.872Z,83.40
2017-09-06T16:55:44.077Z,84.10
2017-09-06T16:58:13.595Z,84.00
2017-09-06T17:00:42.744Z,85.10
2017-09-06T17:03:12.675Z,84.90
2017-09-06T17:05:42.087Z,85.20
2017-09-06T17:08:11.357Z,85.20
2017-09-06T17:10:41.457Z,85.20
2017-09-06T17:13:11.653Z,85.10
2017-09-06T17:15:40.863Z,85.10
2017-09-06T17:18:09.991Z,84.90
2017-09-06T17:20:39.906Z,85.00
2017-09-06T17:23:09.029Z,85.20
2017-09-06T17:25:39.172Z,85.80
2017-09-06T17:28:09.302Z,85.70
2017-09-06T17:30:38.436Z,85.80
2017-09-06T17:33:07.567Z,85.70
2017-09-06T17:35:37.704Z,85.90
2017-09-06T17:38:06.907Z,85.90
2017-09-06T17:40:37.003Z,85.70
2017-09-06T17:43:06.529Z,85.60
2017-09-06T17:45:36.647Z,85.50
2017-09-06T17:48:06.774Z,84.90
2017-09-06T17:50:36.149Z,84.70
2017-09-06T17:53:05.552Z,84.80
2017-09-06T17:55:34.751Z,84.30
2017-09-06T17:58:04.169Z,84.20
2017-09-06T18:00:33.506Z,84.50
2017-09-06T18:03:03.790Z,84.30
2017-09-06T18:05:33.494Z,84.40
2017-09-06T18:08:02.752Z,84.20
2017-09-06T18:10:33.296Z,84.30
2017-09-06T18:13:02.971Z,84.20
2017-09-06T18:15:32.194Z,83.80
2017-09-06T18:18:01.719Z,84.00
2017-09-06T18:20:32.165Z,84.10
2017-09-06T18:23:01.444Z,84.30
2017-09-06T18:25:31.680Z,84.50
2017-09-06T18:28:01.303Z,84.40
2017-09-06T18:30:30.679Z,84.60
2017-09-06T18:33:00.240Z,84.40
2017-09-06T18:35:30.813Z,84.90
2017-09-06T18:38:00.234Z,84.80
2017-09-06T18:40:30.556Z,84.90
2017-09-06T18:43:00.990Z,84.70
2017-09-06T18:45:30.347Z,84.40
2017-09-06T18:48:01.802Z,84.10
2017-09-06T18:50:31.177Z,83.90
2017-09-06T18:53:13.815Z,83.70
2017-09-06T18:55:46.940Z,83.60
2017-09-06T18:58:16.362Z,83.70
2017-09-06T19:00:45.544Z,83.40
2017-09-06T19:03:15.152Z,83.60
2017-09-06T19:05:46.323Z,83.50
2017-09-06T19:08:15.521Z,83.30
2017-09-06T19:10:44.825Z,83.40
2017-09-06T19:13:14.393Z,83.50
2017-09-06T19:15:43.750Z,83.30
2017-09-06T19:18:13.003Z,83.00
2017-09-06T19:20:43.557Z,82.90
2017-09-06T19:23:12.666Z,82.60
2017-09-06T19:25:42.006Z,82.30
2017-09-06T19:28:11.808Z,82.40
2017-09-06T19:30:41.050Z,82.40
2017-09-06T19:33:10.322Z,82.20
2017-09-06T19:35:40.182Z,82.30
2017-09-06T19:38:09.435Z,82.10
2017-09-06T19:40:38.687Z,82.00
2017-09-06T19:43:08.096Z,82.20
2017-09-06T19:45:37.381Z,82.20
2017-09-06T19:48:06.785Z,82.00
2017-09-06T19:50:36.357Z,81.80
2017-09-06T19:53:05.716Z,81.40
2017-09-06T19:55:35.037Z,81.30
2017-09-06T19:58:04.627Z,81.20
2017-09-06T20:00:34.176Z,81.50
2017-09-06T20:03:03.606Z,81.50
2017-09-06T20:05:33.627Z,81.90
2017-09-06T20:08:03.200Z,81.50
2017-09-06T20:10:33.750Z,81.10
2017-09-06T20:13:03.399Z,81.30
2017-09-06T20:15:32.557Z,81.50
2017-09-06T20:18:01.830Z,81.30
2017-09-06T20:20:31.472Z,80.90
2017-09-06T20:23:00.637Z,81.00
2017-09-06T20:25:29.833Z,81.20
2017-09-06T20:27:59.236Z,81.00
2017-09-06T20:30:28.518Z,80.80
2017-09-06T20:32:57.972Z,80.80
2017-09-06T20:35:27.324Z,80.60
2017-09-06T20:37:56.438Z,80.50
2017-09-06T20:40:25.601Z,80.50
2017-09-06T20:42:55.623Z,79.90
2017-09-06T20:45:24.746Z,79.70
2017-09-06T20:47:53.919Z,79.90
2017-09-06T20:50:23.438Z,80.00
2017-09-06T20:52:52.537Z,80.30
2017-09-06T20:55:21.630Z,80.80
2017-09-06T20:57:50.917Z,81.20
2017-09-06T21:00:20.246Z,81.30
2017-09-06T21:02:49.461Z,81.40
2017-09-06T21:05:18.976Z,81.30
2017-09-06T21:07:48.177Z,81.50
2017-09-06T21:10:17.284Z,81.70
2017-09-06T21:12:49.297Z,81.60
2017-09-06T21:15:18.565Z,81.80
2017-09-06T21:17:47.661Z,81.70
2017-09-06T21:20:17.962Z,81.80
2017-09-06T21:22:47.085Z,81.60
2017-09-06T21:25:16.247Z,81.70
2017-09-06T21:27:46.203Z,81.80
2017-09-06T21:30:15.400Z,82.00
2017-09-06T21:32:45.449Z,82.20
2017-09-06T21:35:14.901Z,82.20
2017-09-06T21:37:44.263Z,82.10
2017-09-06T21:40:13.413Z,81.90
2017-09-06T21:42:43.664Z,82.00
2017-09-06T21:45:12.788Z,82.00
2017-09-06T21:47:41.991Z,82.30
2017-09-06T21:50:11.410Z,82.30
2017-09-06T21:52:40.505Z,82.20
2017-09-06T21:55:10.828Z,82.40
2017-09-06T21:57:40.238Z,82.20
2017-09-06T22:00:09.896Z,82.20
2017-09-06T22:02:39.015Z,82.20
2017-09-06T22:05:08.334Z,82.40
2017-09-06T22:07:37.459Z,82.50
2017-09-06T22:10:06.716Z,82.50
2017-09-06T22:12:36.309Z,82.50
2017-09-06T22:15:05.459Z,82.80
2017-09-06T22:17:34.779Z,82.90
2017-09-06T22:20:04.182Z,83.00
2017-09-06T22:22:33.921Z,83.10
2017-09-06T22:25:03.307Z,83.10
2017-09-06T22:27:32.556Z,83.00
2017-09-06T22:30:02.397Z,83.10
2017-09-06T22:32:31.602Z,83.10
2017-09-06T22:35:01.122Z,83.10
2017-09-06T22:37:30.821Z,83.90
2017-09-06T22:40:00.166Z,83.20
2017-09-06T22:42:29.347Z,83.20
2017-09-06T22:44:58.519Z,83.40
2017-09-06T22:47:29.510Z,83.30
2017-09-06T22:49:58.653Z,83.20
2017-09-06T22:52:27.804Z,82.90
2017-09-06T22:54:57.304Z,83.20
2017-09-06T22:57:26.809Z,83.10
2017-09-06T23:00:01.386Z,83.30
2017-09-06T23:02:30.581Z,83.30
2017-09-06T23:05:00.004Z,83.40
2017-09-06T23:07:29.338Z,83.30
2017-09-06T23:09:58.638Z,83.10
2017-09-06T23:12:27.981Z,83.20
2017-09-06T23:17:37.334Z,83.20
2017-09-06T23:20:07.615Z,83.20
2017-09-06T23:22:40.137Z,83.40
2017-09-06T23:25:10.174Z,83.10
2017-09-06T23:27:44.399Z,83.60
2017-09-06T23:30:16.957Z,83.80
2017-09-06T23:32:46.124Z,84.70
2017-09-06T23:35:15.326Z,84.80
2017-09-06T23:37:53.229Z,84.90
2017-09-06T23:40:23.701Z,84.70
2017-09-06T23:42:56.790Z,84.60
2017-09-06T23:45:27.618Z,85.00
2017-09-06T23:47:56.995Z,84.80
2017-09-06T23:50:26.150Z,84.90
2017-09-06T23:52:55.560Z,84.90
2017-09-06T23:55:24.805Z,84.90
2017-09-06T23:57:53.915Z,84.90
